Time;durP1;ratioP1;P1;durP2;ratioP2;P2;SDS_P1;SDS_P2;PMS_P1;PMS_P2;Temp;Humidity;BMP_temperature;BMP_pressure;BME280_temperature;BME280_humidity;BME280_pressure;Samples;Min_cycle;Max_cycle;Signal;HPM_P1;HPM_P2
2022/05/09 00:02:06;;;;;;;2.33;1.80;;;;;;;7.51;75.53;101526.50;5052248;28;20681;-70
2022/05/09 00:04:32;;;;;;;1.77;1.60;;;;;;;7.53;75.82;101530.63;5052446;28;20178;-71
2022/05/09 00:06:57;;;;;;;5.70;1.90;;;;;;;7.53;75.85;101522.47;5052012;28;20171;-70
2022/05/09 00:09:22;;;;;;;3.63;1.70;;;;;;;7.55;76.03;101516.75;5051991;28;20171;-70
2022/05/09 00:11:48;;;;;;;3.57;1.40;;;;;;;7.56;75.20;101510.25;5052405;28;20168;-71
2022/05/09 00:14:14;;;;;;;2.40;2.20;;;;;;;7.55;75.67;101514.88;5052034;28;20171;-70
2022/05/09 00:16:40;;;;;;;4.70;1.73;;;;;;;7.55;74.77;101522.19;5052034;28;20266;-70
2022/05/09 00:19:09;;;;;;;3.60;1.50;;;;;;;7.58;75.02;101511.59;5052246;28;20198;-70
2022/05/09 00:21:37;;;;;;;3.33;1.80;;;;;;;7.60;74.76;101514.06;5052347;28;20171;-70
2022/05/09 00:24:03;;;;;;;2.10;1.30;;;;;;;7.56;74.38;101510.25;5052059;28;20199;-70
2022/05/09 00:26:31;;;;;;;2.17;1.70;;;;;;;7.59;74.60;101518.69;5052257;28;20270;-71
2022/05/09 00:29:02;;;;;;;3.27;1.40;;;;;;;7.56;74.75;101512.97;5051750;28;20627;-70
2022/05/09 00:31:27;;;;;;;2.37;1.40;;;;;;;7.44;74.80;101515.88;5051770;28;20194;-70
2022/05/09 00:33:53;;;;;;;4.17;1.87;;;;;;;7.40;74.75;101515.59;5051473;28;20203;-70
2022/05/09 00:36:18;;;;;;;3.43;1.63;;;;;;;7.38;75.23;101515.06;5051753;28;20542;-70
2022/05/09 00:38:44;;;;;;;3.37;1.50;;;;;;;7.30;75.93;101520.16;5051522;28;20222;-70
2022/05/09 00:41:31;;;;;;;3.33;1.60;;;;;;;7.27;76.04;101520.69;5051553;28;20177;-70
2022/05/09 00:43:58;;;;;;;4.33;1.83;;;;;;;7.30;75.95;101528.31;5051285;28;20206;-70
2022/05/09 00:46:24;;;;;;;3.73;1.80;;;;;;;7.39;76.15;101533.00;5051545;28;20240;-71
2022/05/09 00:48:49;;;;;;;2.20;1.60;;;;;;;7.41;76.26;101528.13;5051385;28;20201;-70
2022/05/09 00:51:20;;;;;;;3.60;1.93;;;;;;;7.33;76.65;101522.34;5051301;28;20171;-70
2022/05/09 00:53:48;;;;;;;3.50;1.67;;;;;;;7.30;76.97;101529.13;5051280;28;20698;-71
2022/05/09 00:56:19;;;;;;;3.90;1.70;;;;;;;7.29;77.19;101526.69;5051192;28;20180;-70
2022/05/09 00:58:58;;;;;;;5.43;1.97;;;;;;;7.24;77.51;101522.03;5051291;28;20644;-71
2022/05/09 01:01:24;;;;;;;4.80;1.80;;;;;;;7.24;77.75;101529.38;5051266;28;20216;-71
2022/05/09 01:03:58;;;;;;;2.17;1.90;;;;;;;7.20;78.22;101525.53;5051151;28;20187;-70
2022/05/09 01:06:24;;;;;;;2.73;1.80;;;;;;;7.05;78.48;101521.63;5051388;28;20235;-70
2022/05/09 01:08:49;;;;;;;3.93;1.70;;;;;;;6.96;79.06;101531.34;5051143;28;20254;-70
2022/05/09 01:11:20;;;;;;;5.03;2.10;;;;;;;6.90;79.75;101526.94;5051163;28;20675;-70
2022/05/09 01:13:51;;;;;;;2.27;1.70;;;;;;;6.89;80.11;101517.16;5051206;28;20179;-70
2022/05/09 01:16:19;;;;;;;3.53;1.57;;;;;;;6.97;80.75;101521.31;5051186;28;20250;-70
2022/05/09 01:18:45;;;;;;;3.20;1.83;;;;;;;7.00;80.03;101513.44;5051034;28;20181;-71
2022/05/09 01:21:30;;;;;;;2.30;1.70;;;;;;;7.01;79.74;101523.22;5050953;28;20174;-70
2022/05/09 01:23:56;;;;;;;4.13;2.10;;;;;;;7.04;79.66;101516.44;5050814;28;20732;-70
2022/05/09 01:26:22;;;;;;;4.13;2.33;;;;;;;7.09;79.14;101519.22;5050845;28;20696;-70
2022/05/09 01:28:47;;;;;;;2.77;1.80;;;;;;;7.15;78.91;101518.16;5050939;28;20201;-71
2022/05/09 01:31:16;;;;;;;3.30;1.73;;;;;;;7.18;78.28;101519.53;5050957;28;20509;-71
2022/05/09 01:33:44;;;;;;;1.80;1.60;;;;;;;7.10;77.57;101518.97;5050982;28;20167;-70
2022/05/09 01:36:16;;;;;;;3.03;1.70;;;;;;;7.08;78.04;101512.13;5052296;28;20206;-70
2022/05/09 01:38:55;;;;;;;3.13;1.90;;;;;;;7.10;78.45;101510.00;5055241;28;20210;-70
2022/05/09 01:41:20;;;;;;;2.93;1.73;;;;;;;7.10;78.47;101513.53;5055108;28;20155;-71
2022/05/09 01:43:49;;;;;;;6.07;1.90;;;;;;;7.09;78.38;101517.31;5054751;28;20217;-71
2022/05/09 01:46:17;;;;;;;3.53;2.27;;;;;;;7.13;78.22;101513.00;5054747;28;20228;-70
2022/05/09 01:51:28;;;;;;;2.40;1.73;;;;;;;7.08;78.07;101521.09;5055549;28;20174;-70
2022/05/09 01:53:54;;;;;;;4.53;1.90;;;;;;;7.11;78.32;101523.31;5055090;28;20523;-71
2022/05/09 01:56:26;;;;;;;2.83;1.87;;;;;;;7.13;77.95;101526.59;5054701;28;20175;-70
2022/05/09 01:58:52;;;;;;;4.27;1.90;;;;;;;7.05;78.19;101524.34;5054399;28;20221;-70
2022/05/09 02:01:19;;;;;;;3.77;1.60;;;;;;;7.03;78.32;101528.41;5054614;28;20171;-71
2022/05/09 02:03:45;;;;;;;2.33;1.53;;;;;;;6.91;78.74;101523.16;5054435;28;20210;-70
2022/05/09 02:06:11;;;;;;;2.70;2.00;;;;;;;6.80;79.25;101521.47;5054455;28;20195;-70
2022/05/09 02:08:37;;;;;;;2.97;1.57;;;;;;;6.71;80.10;101526.53;5054416;28;20171;-70
2022/05/09 02:11:03;;;;;;;1.97;1.67;;;;;;;6.63;80.61;101523.47;5054242;28;20171;-70
2022/05/09 02:13:29;;;;;;;5.03;2.10;;;;;;;6.57;81.50;101520.72;5054176;28;20408;-70
2022/05/09 02:15:54;;;;;;;3.70;1.90;;;;;;;6.48;81.62;101519.53;5054686;28;20199;-70
2022/05/09 02:18:19;;;;;;;2.33;1.63;;;;;;;6.40;82.07;101524.63;5054135;28;20175;-71
2022/05/09 02:20:46;;;;;;;6.90;2.30;;;;;;;6.41;82.64;101527.06;5054297;28;20266;-71
2022/05/09 02:23:13;;;;;;;6.10;1.77;;;;;;;6.41;82.84;101524.38;5053983;28;20191;-70
2022/05/09 02:25:39;;;;;;;5.83;2.37;;;;;;;6.42;83.00;101531.44;5054106;28;20620;-71
2022/05/09 02:28:09;;;;;;;2.27;1.83;;;;;;;6.37;83.36;101525.97;5053856;28;20163;-70
2022/05/09 02:30:35;;;;;;;2.20;2.00;;;;;;;6.39;83.92;101526.53;5053993;28;20258;-70
2022/05/09 02:33:02;;;;;;;3.00;1.67;;;;;;;6.41;83.92;101516.22;5053978;28;20179;-70
2022/05/09 02:35:27;;;;;;;2.97;1.90;;;;;;;6.35;83.91;101514.50;5054070;28;20513;-71
2022/05/09 02:37:53;;;;;;;6.40;2.17;;;;;;;6.20;84.43;101514.38;5053893;28;20205;-71
2022/05/09 02:40:19;;;;;;;2.73;1.80;;;;;;;6.14;84.67;101510.78;5054166;28;20175;-70
2022/05/09 02:42:44;;;;;;;3.10;1.90;;;;;;;6.14;85.10;101515.41;5053580;28;20199;-70
2022/05/09 02:45:10;;;;;;;10.87;2.30;;;;;;;6.20;85.21;101511.66;5053946;28;20176;-70
2022/05/09 02:47:36;;;;;;;4.80;2.07;;;;;;;6.24;85.09;101508.19;5053749;28;20179;-70
2022/05/09 02:50:02;;;;;;;2.77;1.90;;;;;;;6.20;85.10;101512.47;5053606;28;20562;-70
2022/05/09 02:52:27;;;;;;;3.50;2.50;;;;;;;6.16;85.13;101510.53;5054084;28;20583;-70
2022/05/09 02:54:53;;;;;;;4.00;2.20;;;;;;;6.18;85.52;101513.81;5056330;28;20262;-70
2022/05/09 02:57:18;;;;;;;3.50;2.20;;;;;;;6.21;85.88;101513.28;5053105;28;20179;-70
2022/05/09 02:59:44;;;;;;;4.63;1.93;;;;;;;6.23;85.50;101513.88;5045411;28;20186;-70
2022/05/09 03:02:09;;;;;;;2.93;2.10;;;;;;;6.22;85.46;101513.06;5053305;28;20218;-70
2022/05/09 03:04:39;;;;;;;3.63;1.93;;;;;;;6.11;85.74;101510.50;5053501;28;20228;-70
2022/05/09 03:07:04;;;;;;;5.17;2.43;;;;;;;6.11;86.28;101514.03;5053514;28;20681;-70
2022/05/09 03:09:30;;;;;;;3.73;2.87;;;;;;;6.15;87.26;101509.72;5053655;28;20207;-70
2022/05/09 03:11:56;;;;;;;4.23;2.30;;;;;;;6.28;87.89;101503.06;5053492;28;20186;-70
2022/05/09 03:14:21;;;;;;;2.77;2.40;;;;;;;6.34;87.33;101510.16;5053434;28;20172;-70
2022/05/09 03:16:47;;;;;;;3.47;2.20;;;;;;;6.35;86.66;101503.66;5053339;28;20597;-70
2022/05/09 03:19:12;;;;;;;3.80;2.27;;;;;;;6.33;85.60;101503.09;5035573;28;20194;-70
2022/05/09 03:21:38;;;;;;;5.53;2.43;;;;;;;6.38;86.05;101513.22;5053185;28;20254;-70
2022/05/09 03:24:04;;;;;;;4.10;2.17;;;;;;;6.37;85.32;101511.56;5053038;28;20205;-70
2022/05/09 03:26:30;;;;;;;4.27;2.20;;;;;;;6.33;85.43;101513.97;5052979;28;20313;-70
2022/05/09 03:28:55;;;;;;;2.50;2.07;;;;;;;6.25;85.01;101509.00;5052888;28;20171;-70
2022/05/09 03:31:21;;;;;;;3.47;2.20;;;;;;;6.12;85.28;101518.38;5052962;28;20258;-70
2022/05/09 03:33:46;;;;;;;2.70;2.20;;;;;;;6.02;86.15;101514.72;5053081;28;20183;-70
2022/05/09 03:36:11;;;;;;;3.23;2.47;;;;;;;5.91;86.76;101514.59;5053075;28;20238;-70
2022/05/09 03:38:38;;;;;;;3.50;2.20;;;;;;;5.80;87.63;101518.25;5052818;28;20180;-70
2022/05/09 03:41:04;;;;;;;3.13;2.30;;;;;;;5.65;88.66;101509.94;5053501;28;20540;-70
2022/05/09 03:43:29;;;;;;;2.40;1.90;;;;;;;5.56;89.43;101511.44;5052827;28;20214;-70
2022/05/09 03:45:56;;;;;;;2.53;1.53;;;;;;;5.48;90.16;101511.84;5052735;28;20293;-70
2022/05/09 03:48:22;;;;;;;4.13;2.20;;;;;;;5.47;91.27;101515.66;5052535;28;20178;-71
2022/05/09 03:50:47;;;;;;;4.50;2.10;;;;;;;5.54;92.03;101513.59;5052370;28;20175;-72
2022/05/09 03:53:12;;;;;;;2.30;2.10;;;;;;;5.63;92.40;101512.88;5052346;28;20540;-70
2022/05/09 03:55:38;;;;;;;2.70;1.90;;;;;;;5.76;92.57;101511.69;5052474;28;20228;-70
2022/05/09 03:58:04;;;;;;;4.33;2.30;;;;;;;5.84;92.39;101507.72;5051796;28;20172;-71
2022/05/09 04:00:32;;;;;;;3.43;2.07;;;;;;;5.90;91.65;101507.53;5052382;28;20653;-70
2022/05/09 04:02:59;;;;;;;3.30;2.00;;;;;;;5.98;91.10;101506.28;5052453;28;20673;-70
2022/05/09 04:05:30;;;;;;;1.70;1.60;;;;;;;6.04;90.68;101515.28;5052235;28;20183;-71
2022/05/09 04:07:57;;;;;;;2.27;2.07;;;;;;;6.03;90.16;101513.66;5051939;28;20224;-70
2022/05/09 04:10:25;;;;;;;2.43;1.80;;;;;;;6.04;89.77;101512.56;5052034;28;20632;-70
2022/05/09 04:12:50;;;;;;;2.80;1.93;;;;;;;6.05;89.51;101508.78;5052183;28;20197;-71
2022/05/09 04:18:01;;;;;;;4.40;1.73;;;;;;;6.07;90.29;101509.34;5052102;28;20567;-71
2022/05/09 04:20:29;;;;;;;2.87;2.10;;;;;;;6.09;89.75;101512.66;5051854;28;20171;-72
2022/05/09 04:22:56;;;;;;;3.97;2.30;;;;;;;6.15;89.60;101517.84;5051742;28;20265;-71
2022/05/09 04:25:22;;;;;;;3.93;2.33;;;;;;;6.22;89.91;101509.50;5052004;28;20194;-71
2022/05/09 04:27:48;;;;;;;3.80;2.40;;;;;;;6.28;89.55;101519.34;5051700;28;20233;-70
2022/05/09 04:30:14;;;;;;;4.67;2.43;;;;;;;6.33;89.56;101524.81;5051853;28;20181;-70
2022/05/09 04:32:43;;;;;;;3.43;2.07;;;;;;;6.37;89.05;101520.53;5051740;28;20274;-71
2022/05/09 04:35:17;;;;;;;2.80;2.23;;;;;;;6.45;88.72;101522.75;5051825;28;20229;-71
2022/05/09 04:37:45;;;;;;;3.30;2.20;;;;;;;6.52;88.25;101525.28;5051551;28;20238;-71
2022/05/09 04:40:11;;;;;;;2.77;2.10;;;;;;;6.49;88.00;101521.16;5051402;28;20178;-71
2022/05/09 04:42:36;;;;;;;2.90;1.47;;;;;;;6.47;88.00;101523.31;5051224;28;20215;-71
2022/05/09 04:45:02;;;;;;;3.47;2.20;;;;;;;6.53;88.15;101519.59;5051461;28;20258;-70
2022/05/09 04:47:27;;;;;;;2.63;2.30;;;;;;;6.61;88.44;101518.28;5051802;28;20185;-71
2022/05/09 04:49:53;;;;;;;3.70;2.97;;;;;;;6.72;88.95;101520.03;5051496;28;20179;-71
2022/05/09 04:52:18;;;;;;;2.20;2.00;;;;;;;6.84;89.21;101520.66;5051460;28;20225;-71
2022/05/09 04:54:43;;;;;;;3.07;1.90;;;;;;;6.94;88.39;101522.63;5051217;28;20167;-71
2022/05/09 04:57:09;;;;;;;4.00;2.33;;;;;;;6.99;88.39;101525.41;5051170;28;20175;-71
2022/05/09 04:59:34;;;;;;;6.97;2.73;;;;;;;7.09;88.24;101517.31;5051217;28;20627;-71
2022/05/09 05:02:00;;;;;;;7.23;3.33;;;;;;;7.14;85.22;101530.13;5051299;28;20179;-72
2022/05/09 05:04:25;;;;;;;3.93;3.03;;;;;;;7.33;84.97;101530.50;5051007;28;20171;-70
2022/05/09 05:06:51;;;;;;;4.87;3.20;;;;;;;7.43;83.73;101528.66;5051040;28;20179;-71
2022/05/09 05:09:16;;;;;;;5.93;3.30;;;;;;;7.51;82.66;101531.94;5051002;28;20167;-71
2022/05/09 05:11:41;;;;;;;7.23;3.97;;;;;;;7.60;81.99;101531.19;5051072;28;20253;-70
2022/05/09 05:14:07;;;;;;;5.07;3.10;;;;;;;7.68;80.84;101532.59;5051514;28;20216;-72
2022/05/09 05:19:16;;;;;;;3.37;2.97;;;;;;;7.85;80.86;101540.56;5050997;28;20185;-71
2022/05/09 05:21:42;;;;;;;5.80;3.27;;;;;;;7.79;79.88;101542.41;5051283;28;20699;-71
2022/05/09 05:24:08;;;;;;;3.47;3.00;;;;;;;7.80;79.41;101537.78;5050865;28;20211;-71
2022/05/09 05:26:33;;;;;;;6.17;3.67;;;;;;;7.94;80.01;101544.38;5050932;28;20168;-72
2022/05/09 05:28:58;;;;;;;6.17;3.63;;;;;;;8.00;78.09;101546.06;5050792;28;20254;-70
2022/05/09 05:31:24;;;;;;;4.93;3.87;;;;;;;8.03;77.14;101549.06;5050642;28;20171;-70
2022/05/09 05:33:49;;;;;;;5.77;3.37;;;;;;;8.12;77.39;101554.00;5051115;28;20622;-71
2022/05/09 05:36:15;;;;;;;12.60;3.63;;;;;;;8.16;77.46;101555.91;5050988;28;20597;-71
2022/05/09 05:38:41;;;;;;;6.13;4.00;;;;;;;8.14;77.73;101558.09;5050589;28;20178;-70
2022/05/09 05:41:06;;;;;;;5.97;3.33;;;;;;;8.25;79.15;101554.31;5050825;28;20175;-71
2022/05/09 05:43:32;;;;;;;4.50;3.30;;;;;;;8.33;79.23;101550.22;5050405;28;20210;-70
2022/05/09 05:45:57;;;;;;;4.13;3.13;;;;;;;8.49;78.16;101551.09;5050864;28;20183;-70
2022/05/09 05:48:24;;;;;;;6.50;3.50;;;;;;;8.64;77.25;101551.94;5050648;28;20701;-70
2022/05/09 05:50:50;;;;;;;5.77;3.47;;;;;;;8.72;77.40;101553.31;5050692;28;20623;-72
2022/05/09 05:53:15;;;;;;;3.70;3.40;;;;;;;8.78;76.79;101557.66;5050429;28;20217;-72
2022/05/09 05:55:40;;;;;;;3.33;2.93;;;;;;;8.85;75.80;101552.78;5050496;28;20171;-71
2022/05/09 05:58:07;;;;;;;7.73;3.63;;;;;;;8.85;76.08;101558.22;5050769;28;20250;-72
2022/05/09 06:00:33;;;;;;;5.03;3.13;;;;;;;8.89;76.33;101561.22;5050644;28;20206;-71
2022/05/09 06:02:59;;;;;;;6.10;3.93;;;;;;;8.98;75.82;101554.16;5050383;28;20274;-72
2022/05/09 06:05:24;;;;;;;3.20;2.57;;;;;;;9.22;75.79;101562.56;5050828;28;20216;-71
2022/05/09 06:07:55;;;;;;;5.33;3.30;;;;;;;9.38;74.46;101547.78;5050180;28;20655;-71
2022/05/09 06:10:21;;;;;;;10.87;3.57;;;;;;;9.40;74.47;101556.53;5050631;28;20500;-73
2022/05/09 06:12:47;;;;;;;5.20;3.57;;;;;;;9.54;74.81;101559.50;5050436;28;20171;-71
2022/05/09 06:15:28;;;;;;;7.07;3.80;;;;;;;9.46;74.26;101552.69;5050396;28;20646;-71
2022/05/09 06:17:54;;;;;;;6.87;3.20;;;;;;;9.64;74.04;101554.00;5050274;28;20178;-72
2022/05/09 06:20:20;;;;;;;5.43;3.90;;;;;;;9.67;74.42;101558.91;5050208;28;20175;-71
2022/05/09 06:22:46;;;;;;;7.30;3.97;;;;;;;9.87;73.71;101560.75;5052614;28;20191;-71
2022/05/09 06:25:14;;;;;;;6.57;4.00;;;;;;;10.08;73.14;101558.75;5054100;28;20175;-70
2022/05/09 06:27:41;;;;;;;7.23;3.93;;;;;;;10.22;73.07;101553.53;5054027;28;20171;-71
2022/05/09 06:30:08;;;;;;;9.03;4.17;;;;;;;10.47;73.42;101547.91;5053984;28;20163;-70
2022/05/09 06:32:34;;;;;;;11.93;3.97;;;;;;;10.54;71.74;101547.56;5053956;28;20176;-71
2022/05/09 06:35:00;;;;;;;7.20;4.47;;;;;;;10.61;71.27;101546.19;5053972;28;20172;-72
2022/05/09 06:37:28;;;;;;;15.50;4.80;;;;;;;10.68;71.63;101549.38;5053693;28;20170;-71
2022/05/09 06:39:54;;;;;;;8.67;4.17;;;;;;;10.89;71.77;101552.78;5054132;28;20171;-71
2022/05/09 06:42:20;;;;;;;10.73;4.40;;;;;;;10.80;70.21;101551.75;5053814;28;20191;-73
2022/05/09 06:44:46;;;;;;;4.47;4.07;;;;;;;10.91;70.45;101558.78;5053547;28;20745;-71
2022/05/09 06:47:12;;;;;;;13.10;4.97;;;;;;;11.02;70.46;101552.13;5053531;28;20167;-71
2022/05/09 06:49:38;;;;;;;5.07;4.07;;;;;;;11.10;70.72;101553.41;5053790;28;20515;-71
2022/05/09 06:52:03;;;;;;;5.47;3.93;;;;;;;11.18;69.45;101552.81;5053860;28;20174;-72
2022/05/09 06:54:29;;;;;;;7.87;4.60;;;;;;;11.20;68.52;101558.00;5053538;28;20203;-71
2022/05/09 06:56:54;;;;;;;5.70;3.93;;;;;;;11.26;68.49;101562.28;5053766;28;20282;-71
2022/05/09 06:59:20;;;;;;;7.60;3.47;;;;;;;11.48;69.04;101565.38;5053763;28;20178;-72
2022/05/09 07:01:46;;;;;;;10.83;3.93;;;;;;;11.55;67.29;101562.28;5050546;28;20216;-71
2022/05/09 07:04:11;;;;;;;6.00;3.97;;;;;;;11.63;67.33;101565.19;5052191;28;20195;-72
2022/05/09 07:06:37;;;;;;;5.97;3.83;;;;;;;11.84;66.13;101567.72;5053319;28;20175;-74
2022/05/09 07:09:05;;;;;;;6.80;3.60;;;;;;;11.95;66.88;101568.41;5052890;28;20209;-73
2022/05/09 07:11:30;;;;;;;5.57;3.50;;;;;;;11.96;65.68;101565.38;5053361;28;20705;-73
2022/05/09 07:13:56;;;;;;;11.60;4.17;;;;;;;12.04;66.37;101561.19;5053379;28;20253;-73
2022/05/09 07:16:21;;;;;;;6.23;3.80;;;;;;;12.26;66.75;101566.91;5053244;28;20231;-74
2022/05/09 07:18:47;;;;;;;5.53;3.37;;;;;;;12.17;66.06;101555.81;5035560;28;20271;-74
2022/05/09 07:21:12;;;;;;;5.60;3.33;;;;;;;12.45;65.84;101569.69;5052985;28;20183;-71
2022/05/09 07:23:38;;;;;;;5.30;2.87;;;;;;;12.31;64.69;101566.03;5052750;28;20608;-71
2022/05/09 07:26:03;;;;;;;6.17;3.00;;;;;;;12.48;65.36;101569.09;5052830;28;20563;-71
2022/05/09 07:28:30;;;;;;;5.10;3.40;;;;;;;12.62;64.18;101566.41;5052634;28;20171;-72
2022/05/09 07:30:56;;;;;;;4.83;3.00;;;;;;;12.71;65.11;101564.59;5053045;28;20173;-71
2022/05/09 07:33:22;;;;;;;6.70;2.60;;;;;;;12.69;64.03;101562.16;5051754;28;20258;-71
2022/05/09 07:35:48;;;;;;;6.83;2.90;;;;;;;12.87;63.96;101557.75;5053004;28;20389;-71
2022/05/09 07:38:14;;;;;;;5.07;2.67;;;;;;;13.02;63.47;101556.72;5052378;28;20175;-71
2022/05/09 07:40:42;;;;;;;5.27;2.50;;;;;;;13.06;62.83;101560.47;5052288;28;20181;-71
2022/05/09 07:43:14;;;;;;;5.53;2.93;;;;;;;13.30;63.38;101566.66;5052076;28;20211;-71
2022/05/09 07:45:42;;;;;;;5.47;2.97;;;;;;;13.46;61.68;101571.88;5052273;28;20554;-71
2022/05/09 07:48:08;;;;;;;4.70;2.70;;;;;;;13.51;60.38;101569.03;5052124;28;20355;-71
2022/05/09 07:50:34;;;;;;;7.60;2.40;;;;;;;13.44;60.40;101563.94;5052128;28;20179;-71
2022/05/09 07:53:05;;;;;;;3.73;2.40;;;;;;;13.58;61.73;101577.69;5052108;28;20202;-71
2022/05/09 07:55:31;;;;;;;5.57;2.87;;;;;;;13.70;59.34;101580.75;5052123;28;20178;-71
2022/05/09 07:57:56;;;;;;;6.23;2.80;;;;;;;13.84;59.90;101575.25;5051548;28;20229;-71
2022/05/09 08:00:21;;;;;;;4.93;2.90;;;;;;;13.95;61.66;101577.50;5051787;28;20639;-71
2022/05/09 08:02:46;;;;;;;4.97;2.80;;;;;;;13.86;61.24;101573.00;5051484;28;20199;-71
2022/05/09 08:05:12;;;;;;;3.63;2.60;;;;;;;14.02;60.54;101577.06;5051526;28;20573;-71
2022/05/09 08:07:38;;;;;;;5.07;2.47;;;;;;;14.19;60.70;101576.47;5051672;28;20182;-71
2022/05/09 08:10:06;;;;;;;3.20;2.17;;;;;;;14.22;59.72;101575.84;5051812;28;20167;-71
2022/05/09 08:12:31;;;;;;;3.50;2.40;;;;;;;14.12;59.15;101570.56;5051789;28;20241;-71
2022/05/09 08:14:57;;;;;;;4.37;2.10;;;;;;;14.27;58.86;101573.78;5051696;28;20187;-71
2022/05/09 08:17:22;;;;;;;2.73;1.90;;;;;;;14.40;60.03;101568.56;5051528;28;20179;-71
2022/05/09 08:19:52;;;;;;;2.87;2.23;;;;;;;14.57;59.83;101571.50;5051683;28;20221;-71
2022/05/09 08:22:19;;;;;;;3.47;1.90;;;;;;;14.81;59.00;101569.28;5051573;28;20180;-71
2022/05/09 08:24:45;;;;;;;4.27;2.10;;;;;;;14.96;57.90;101575.53;5051384;28;20180;-71
2022/05/09 08:27:10;;;;;;;2.90;1.93;;;;;;;14.96;57.49;101568.09;5051150;28;20179;-71
2022/05/09 08:29:35;;;;;;;3.47;2.20;;;;;;;15.04;57.42;101572.81;5051450;28;20175;-71
2022/05/09 08:32:01;;;;;;;3.00;1.80;;;;;;;15.14;56.95;101569.81;5051745;28;20526;-71
2022/05/09 08:34:26;;;;;;;3.53;1.67;;;;;;;15.14;54.99;101567.06;5051441;28;20183;-71
2022/05/09 08:36:55;;;;;;;5.60;2.17;;;;;;;15.19;54.74;101566.16;5051322;28;20171;-71
2022/05/09 08:39:22;;;;;;;4.33;1.80;;;;;;;15.34;54.50;101565.75;5051301;28;20642;-71
2022/05/09 08:41:55;;;;;;;3.27;2.00;;;;;;;15.50;54.49;101568.09;5051242;28;20376;-71
2022/05/09 08:44:47;;;;;;;4.80;2.37;;;;;;;15.61;54.97;101562.00;5051277;28;20218;-71
2022/05/09 08:47:13;;;;;;;4.40;1.80;;;;;;;15.71;54.97;101558.97;5050580;28;20305;-71
2022/05/09 08:50:05;;;;;;;3.07;1.67;;;;;;;16.18;53.91;101561.19;5050836;28;20565;-71
2022/05/09 08:52:42;;;;;;;5.03;2.00;;;;;;;16.00;52.55;101554.81;5046980;28;20180;-71
2022/05/09 08:55:10;;;;;;;4.03;1.57;;;;;;;16.20;53.53;101567.19;5049289;28;20255;-71
2022/05/09 08:57:43;;;;;;;5.67;2.27;;;;;;;16.27;51.85;101556.50;5050419;28;20589;-71
2022/05/09 09:00:13;;;;;;;3.40;1.77;;;;;;;16.39;51.93;101564.16;5050685;28;20461;-71
2022/05/09 09:02:44;;;;;;;3.00;2.07;;;;;;;16.34;51.13;101556.81;5047627;28;20720;-71
2022/05/09 09:05:12;;;;;;;3.13;1.97;;;;;;;16.61;52.25;101561.22;5051129;28;20179;-71
2022/05/09 09:07:52;;;;;;;4.30;1.40;;;;;;;16.89;49.63;101556.22;5051047;28;20182;-71
2022/05/09 09:10:24;;;;;;;4.67;1.77;;;;;;;16.48;49.60;101551.97;5031215;28;20179;-71
2022/05/09 09:13:14;;;;;;;3.40;1.90;;;;;;;16.67;48.78;101551.69;5030999;28;20242;-71
2022/05/09 09:16:17;;;;;;;3.33;1.90;;;;;;;16.64;49.13;101552.31;5029963;28;20267;-71
2022/05/09 09:18:57;;;;;;;3.83;1.73;;;;;;;16.87;48.92;101548.25;5030219;28;20183;-71
2022/05/09 09:21:40;;;;;;;2.80;2.27;;;;;;;16.85;50.17;101549.72;5030423;28;20171;-71
2022/05/09 09:24:31;;;;;;;2.37;1.60;;;;;;;17.09;48.62;101547.25;5030700;28;20652;-71
2022/05/09 09:27:34;;;;;;;3.80;1.80;;;;;;;17.36;49.55;101559.88;5030315;28;20176;-71
2022/05/09 09:30:10;;;;;;;2.83;1.60;;;;;;;17.22;46.52;101548.22;5030405;28;20195;-72
2022/05/09 09:32:39;;;;;;;2.50;1.60;;;;;;;17.40;48.11;101540.66;5030194;28;20176;-71
2022/05/09 09:35:16;;;;;;;4.33;2.03;;;;;;;17.47;47.43;101533.47;5030360;28;20179;-71
2022/05/09 09:37:53;;;;;;;4.73;2.00;;;;;;;17.42;48.44;101530.09;5030010;28;20601;-71
2022/05/09 09:40:19;;;;;;;3.53;2.00;;;;;;;17.30;46.24;101527.22;5030446;28;20184;-71
2022/05/09 09:42:44;;;;;;;3.63;1.47;;;;;;;17.68;46.39;101529.97;5031103;28;20203;-71
2022/05/09 09:45:54;;;;;;;1.83;1.60;;;;;;;17.45;45.66;101518.38;5030134;28;20241;-71
2022/05/09 09:48:23;;;;;;;6.13;1.87;;;;;;;17.98;47.16;101528.06;5029742;28;20187;-71
2022/05/09 09:51:00;;;;;;;3.40;2.20;;;;;;;18.10;45.80;101517.09;5030170;28;20176;-71
2022/05/09 09:53:52;;;;;;;3.87;1.53;;;;;;;18.01;43.58;101502.50;5029907;28;20651;-71
2022/05/09 09:56:20;;;;;;;8.60;2.03;;;;;;;17.96;44.61;101508.22;5020857;28;20195;-71
2022/05/09 09:58:45;;;;;;;1.87;1.30;;;;;;;17.83;43.94;101508.13;5033807;28;20172;-71
2022/05/09 10:01:11;;;;;;;3.73;1.50;;;;;;;17.87;43.98;101511.03;5033959;28;20180;-71
2022/05/09 10:03:42;;;;;;;1.83;1.50;;;;;;;18.06;44.49;101510.59;5033854;28;20202;-71
2022/05/09 10:06:17;;;;;;;2.57;1.50;;;;;;;18.13;43.96;101500.63;5034060;28;20168;-71
2022/05/09 10:08:44;;;;;;;4.13;1.60;;;;;;;18.10;43.69;101503.25;5033650;28;20180;-71
2022/05/09 10:11:35;;;;;;;2.13;1.47;;;;;;;17.82;43.94;101494.66;5033811;28;20660;-71
2022/05/09 10:14:04;;;;;;;2.23;1.50;;;;;;;17.98;43.51;101497.63;5029621;28;20660;-71
2022/05/09 10:16:45;;;;;;;4.17;1.67;;;;;;;18.28;44.33;101496.44;5034105;28;20176;-71
2022/05/09 10:19:27;;;;;;;4.73;1.53;;;;;;;18.65;45.00;101483.59;5033799;28;20198;-71
2022/05/09 10:24:57;;;;;;;2.73;1.70;;;;;;;18.63;44.08;101477.59;5051209;28;20196;-71
2022/05/09 10:27:22;;;;;;;1.90;1.43;;;;;;;18.69;43.66;101483.72;5053426;28;20171;-71
2022/05/09 10:29:53;;;;;;;3.37;1.53;;;;;;;18.77;43.97;101476.47;5053597;28;20650;-71
2022/05/09 10:32:48;;;;;;;2.47;1.47;;;;;;;18.72;43.71;101466.44;5053816;28;20163;-74
2022/05/09 10:35:24;;;;;;;4.07;2.00;;;;;;;18.79;43.27;101472.22;5011281;28;20248;-71
2022/05/09 10:38:00;;;;;;;3.57;1.80;;;;;;;18.62;42.73;101456.56;5053862;28;20167;-71
2022/05/09 10:40:34;;;;;;;2.43;1.43;;;;;;;18.94;43.88;101460.47;5053609;28;20249;-71
2022/05/09 10:43:06;;;;;;;2.80;1.73;;;;;;;18.73;43.31;101446.72;5053660;28;20214;-71
2022/05/09 10:45:41;;;;;;;2.27;1.40;;;;;;;18.72;42.63;101449.81;5053517;28;20533;-71
2022/05/09 10:48:10;;;;;;;2.67;1.70;;;;;;;19.20;45.19;101448.28;5053654;28;20163;-71
2022/05/09 10:51:04;;;;;;;5.97;1.63;;;;;;;19.46;43.46;101443.22;5053532;28;20506;-71
2022/05/09 10:53:39;;;;;;;1.53;1.40;;;;;;;19.17;42.33;101443.44;5033578;28;20176;-71
2022/05/09 10:56:20;;;;;;;2.00;1.40;;;;;;;19.40;43.98;101438.25;5034081;28;20174;-71
2022/05/09 10:59:00;;;;;;;2.00;1.80;;;;;;;19.75;42.98;101431.09;5053338;28;20579;-71
2022/05/09 11:01:33;;;;;;;2.33;1.60;;;;;;;19.79;42.83;101423.69;5053287;28;20190;-71
2022/05/09 11:04:03;;;;;;;3.20;1.53;;;;;;;19.73;42.88;101415.97;5053015;28;20230;-72
2022/05/09 11:06:53;;;;;;;4.33;1.63;;;;;;;19.40;42.76;101418.88;5035118;28;20270;-72
2022/05/09 11:09:32;;;;;;;5.20;2.07;;;;;;;19.36;43.04;101415.97;5052768;28;20193;-71
2022/05/09 11:12:02;;;;;;;2.33;1.70;;;;;;;19.61;43.47;101416.78;5053527;28;20163;-71
2022/05/09 11:15:01;;;;;;;1.77;1.50;;;;;;;19.78;42.78;101410.16;5052917;28;20190;-72
2022/05/09 11:17:49;;;;;;;3.27;1.70;;;;;;;19.41;42.67;101401.88;5053069;28;20216;-71
2022/05/09 11:20:24;;;;;;;5.57;2.00;;;;;;;19.42;42.70;101402.69;5052966;28;20175;-71
2022/05/09 11:23:07;;;;;;;3.10;1.43;;;;;;;19.44;42.60;101392.06;5052651;28;20198;-72
2022/05/09 11:25:48;;;;;;;3.27;1.47;;;;;;;19.83;43.22;101398.84;5052842;28;20229;-71
2022/05/09 11:28:29;;;;;;;2.53;1.50;;;;;;;20.05;44.33;101406.63;5052619;28;20160;-70
2022/05/09 11:31:13;;;;;;;3.53;1.77;;;;;;;20.06;43.01;101399.09;5052634;28;20168;-71
2022/05/09 11:34:04;;;;;;;3.33;1.43;;;;;;;19.89;43.13;101389.91;5052698;28;20174;-72
2022/05/09 11:36:50;;;;;;;2.70;1.50;;;;;;;19.87;42.60;101389.47;5048983;28;20267;-71
2022/05/09 11:39:33;;;;;;;1.87;1.43;;;;;;;20.08;43.41;101380.13;5046228;28;20592;-71
2022/05/09 11:45:35;;;;;;;1.90;1.10;;;;;;;20.19;42.87;101375.69;5052297;28;20229;-72
2022/05/09 11:48:07;;;;;;;2.23;1.60;;;;;;;19.84;42.84;101367.97;5044468;28;20183;-71
2022/05/09 11:50:54;;;;;;;3.10;1.73;;;;;;;20.18;43.30;101369.34;5052213;28;20177;-71
2022/05/09 11:53:24;;;;;;;3.30;1.57;;;;;;;20.16;42.85;101357.78;5052171;28;20650;-71
2022/05/09 11:55:50;;;;;;;3.47;1.60;;;;;;;20.52;44.72;101369.06;5052579;28;20168;-71